sensor_id;sensor_type;location;lat;lon;timestamp;temperature;humidity
64918;HTU21D;52176;44.858;38.372;2023-04-20T00:00:21;13.62;86.83
64918;HTU21D;52176;44.858;38.372;2023-04-20T00:02:47;13.61;90.11
64918;HTU21D;52176;44.858;38.372;2023-04-20T00:05:13;13.67;89.05
64918;HTU21D;52176;44.858;38.372;2023-04-20T00:07:39;13.74;90.88
64918;HTU21D;52176;44.858;38.372;2023-04-20T00:10:06;13.81;89.72
64918;HTU21D;52176;44.858;38.372;2023-04-20T00:12:32;13.86;91.15
64918;HTU21D;52176;44.858;38.372;2023-04-20T00:14:58;13.93;89.95
64918;HTU21D;52176;44.858;38.372;2023-04-20T00:17:24;13.92;90.66
64918;HTU21D;52176;44.858;38.372;2023-04-20T00:19:50;13.96;89.57
64918;HTU21D;52176;44.858;38.372;2023-04-20T00:22:15;13.90;88.92
64918;HTU21D;52176;44.858;38.372;2023-04-20T00:24:41;13.78;90.19
64918;HTU21D;52176;44.858;38.372;2023-04-20T00:27:07;13.79;89.31
64918;HTU21D;52176;44.858;38.372;2023-04-20T00:29:33;13.75;90.51
64918;HTU21D;52176;44.858;38.372;2023-04-20T00:31:59;13.80;89.57
64918;HTU21D;52176;44.858;38.372;2023-04-20T00:34:24;13.77;89.05
64918;HTU21D;52176;44.858;38.372;2023-04-20T00:36:51;13.71;90.55
64918;HTU21D;52176;44.858;38.372;2023-04-20T00:39:17;13.79;90.85
64918;HTU21D;52176;44.858;38.372;2023-04-20T00:41:43;13.84;89.82
64918;HTU21D;52176;44.858;38.372;2023-04-20T00:44:08;13.80;89.28
64918;HTU21D;52176;44.858;38.372;2023-04-20T00:46:38;13.74;90.50
64918;HTU21D;52176;44.858;38.372;2023-04-20T00:49:04;13.76;89.60
64918;HTU21D;52176;44.858;38.372;2023-04-20T00:51:31;13.69;89.12
64918;HTU21D;52176;44.858;38.372;2023-04-20T00:53:57;13.62;88.79
64918;HTU21D;52176;44.858;38.372;2023-04-20T00:56:24;13.53;88.60
64918;HTU21D;52176;44.858;38.372;2023-04-20T00:58:50;13.44;90.44
64918;HTU21D;52176;44.858;38.372;2023-04-20T01:01:16;13.50;90.57
64918;HTU21D;52176;44.858;38.372;2023-04-20T01:03:44;13.54;89.52
64918;HTU21D;52176;44.858;38.372;2023-04-20T01:06:12;13.50;90.38
64918;HTU21D;52176;44.858;38.372;2023-04-20T01:08:48;13.52;89.52
64918;HTU21D;52176;44.858;38.372;2023-04-20T01:11:13;13.50;89.04
64918;HTU21D;52176;44.858;38.372;2023-04-20T01:13:39;13.43;90.86
64918;HTU21D;52176;44.858;38.372;2023-04-20T01:16:05;13.53;91.32
64918;HTU21D;52176;44.858;38.372;2023-04-20T01:18:44;13.64;91.32
64918;HTU21D;52176;44.858;38.372;2023-04-20T01:21:11;13.69;90.20
64918;HTU21D;52176;44.858;38.372;2023-04-20T01:23:37;13.64;89.70
64918;HTU21D;52176;44.858;38.372;2023-04-20T01:26:07;13.59;91.24
64918;HTU21D;52176;44.858;38.372;2023-04-20T01:28:32;13.62;90.29
64918;HTU21D;52176;44.858;38.372;2023-04-20T01:30:58;13.61;89.83
64918;HTU21D;52176;44.858;38.372;2023-04-20T01:33:24;13.56;89.54
64918;HTU21D;52176;44.858;38.372;2023-04-20T01:35:51;13.51;89.39
64918;HTU21D;52176;44.858;38.372;2023-04-20T01:38:17;13.48;89.23
64918;HTU21D;52176;44.858;38.372;2023-04-20T01:40:44;13.48;91.56
64918;HTU21D;52176;44.858;38.372;2023-04-20T01:43:09;13.52;90.66
64918;HTU21D;52176;44.858;38.372;2023-04-20T01:45:37;13.59;91.90
64918;HTU21D;52176;44.858;38.372;2023-04-20T01:48:03;13.69;91.98
64918;HTU21D;52176;44.858;38.372;2023-04-20T01:50:28;13.76;90.91
64918;HTU21D;52176;44.858;38.372;2023-04-20T01:52:54;13.73;90.28
64918;HTU21D;52176;44.858;38.372;2023-04-20T01:55:20;13.67;91.07
64918;HTU21D;52176;44.858;38.372;2023-04-20T01:57:46;13.75;91.05
64918;HTU21D;52176;44.858;38.372;2023-04-20T02:00:12;13.82;90.76
64918;HTU21D;52176;44.858;38.372;2023-04-20T02:02:42;13.89;90.24
64918;HTU21D;52176;44.858;38.372;2023-04-20T02:05:08;13.96;89.44
64918;HTU21D;52176;44.858;38.372;2023-04-20T02:07:34;13.85;88.89
64918;HTU21D;52176;44.858;38.372;2023-04-20T02:10:00;13.73;88.72
64918;HTU21D;52176;44.858;38.372;2023-04-20T02:12:25;13.59;90.04
64918;HTU21D;52176;44.858;38.372;2023-04-20T02:14:51;13.59;89.32
64918;HTU21D;52176;44.858;38.372;2023-04-20T02:17:20;13.50;90.25
64918;HTU21D;52176;44.858;38.372;2023-04-20T02:19:46;13.53;89.42
64918;HTU21D;52176;44.858;38.372;2023-04-20T02:22:12;13.46;90.02
64918;HTU21D;52176;44.858;38.372;2023-04-20T02:24:38;13.48;89.82
64918;HTU21D;52176;44.858;38.372;2023-04-20T02:27:03;13.48;89.02
64918;HTU21D;52176;44.858;38.372;2023-04-20T02:29:30;13.41;88.67
64918;HTU21D;52176;44.858;38.372;2023-04-20T02:31:56;13.26;89.78
64918;HTU21D;52176;44.858;38.372;2023-04-20T02:34:22;13.30;89.86
64918;HTU21D;52176;44.858;38.372;2023-04-20T02:36:48;13.34;89.55
64918;HTU21D;52176;44.858;38.372;2023-04-20T02:39:13;13.38;89.38
64918;HTU21D;52176;44.858;38.372;2023-04-20T02:41:39;13.39;89.21
64918;HTU21D;52176;44.858;38.372;2023-04-20T02:44:05;13.41;89.23
64918;HTU21D;52176;44.858;38.372;2023-04-20T02:46:34;13.40;88.44
64918;HTU21D;52176;44.858;38.372;2023-04-20T02:49:00;13.32;88.06
64918;HTU21D;52176;44.858;38.372;2023-04-20T02:51:28;13.17;89.20
64918;HTU21D;52176;44.858;38.372;2023-04-20T02:53:54;13.19;88.49
64918;HTU21D;52176;44.858;38.372;2023-04-20T02:56:27;13.11;89.60
64918;HTU21D;52176;44.858;38.372;2023-04-20T02:58:57;13.17;89.74
64918;HTU21D;52176;44.858;38.372;2023-04-20T03:01:30;13.22;88.75
64918;HTU21D;52176;44.858;38.372;2023-04-20T03:04:17;13.16;89.58
64918;HTU21D;52176;44.858;38.372;2023-04-20T03:06:53;13.24;89.60
64918;HTU21D;52176;44.858;38.372;2023-04-20T03:09:25;13.30;88.71
64918;HTU21D;52176;44.858;38.372;2023-04-20T03:11:57;13.25;89.23
64918;HTU21D;52176;44.858;38.372;2023-04-20T03:14:45;13.34;89.07
64918;HTU21D;52176;44.858;38.372;2023-04-20T03:17:11;13.39;88.67
64918;HTU21D;52176;44.858;38.372;2023-04-20T03:19:37;13.44;87.91
64918;HTU21D;52176;44.858;38.372;2023-04-20T03:22:04;13.37;88.60
64918;HTU21D;52176;44.858;38.372;2023-04-20T03:24:31;13.41;87.80
64918;HTU21D;52176;44.858;38.372;2023-04-20T03:27:01;13.38;87.44
64918;HTU21D;52176;44.858;38.372;2023-04-20T03:29:35;13.31;87.28
64918;HTU21D;52176;44.858;38.372;2023-04-20T03:32:01;13.25;87.25
64918;HTU21D;52176;44.858;38.372;2023-04-20T03:34:27;13.21;87.28
64918;HTU21D;52176;44.858;38.372;2023-04-20T03:36:53;13.19;87.28
64918;HTU21D;52176;44.858;38.372;2023-04-20T03:39:19;13.19;87.15
64918;HTU21D;52176;44.858;38.372;2023-04-20T03:41:44;13.16;87.03
64918;HTU21D;52176;44.858;38.372;2023-04-20T03:44:10;13.14;87.11
64918;HTU21D;52176;44.858;38.372;2023-04-20T03:46:36;13.16;87.04
64918;HTU21D;52176;44.858;38.372;2023-04-20T03:49:02;13.18;86.90
64918;HTU21D;52176;44.858;38.372;2023-04-20T03:51:28;13.18;86.97
64918;HTU21D;52176;44.858;38.372;2023-04-20T03:53:53;13.23;86.88
64918;HTU21D;52176;44.858;38.372;2023-04-20T03:56:20;13.26;86.72
64918;HTU21D;52176;44.858;38.372;2023-04-20T03:58:47;13.31;86.67
64918;HTU21D;52176;44.858;38.372;2023-04-20T04:01:17;13.35;86.41
64918;HTU21D;52176;44.858;38.372;2023-04-20T04:03:46;13.45;89.79
64918;HTU21D;52176;44.858;38.372;2023-04-20T04:06:12;13.66;90.57
64918;HTU21D;52176;44.858;38.372;2023-04-20T04:08:37;13.89;90.40
64918;HTU21D;52176;44.858;38.372;2023-04-20T04:11:04;14.09;89.76
64918;HTU21D;52176;44.858;38.372;2023-04-20T04:13:29;14.28;89.45
64918;HTU21D;52176;44.858;38.372;2023-04-20T04:15:56;14.49;89.05
64918;HTU21D;52176;44.858;38.372;2023-04-20T04:18:22;14.70;88.12
64918;HTU21D;52176;44.858;38.372;2023-04-20T04:20:49;14.72;87.38
64918;HTU21D;52176;44.858;38.372;2023-04-20T04:23:15;14.77;87.09
64918;HTU21D;52176;44.858;38.372;2023-04-20T04:25:45;14.80;86.83
64918;HTU21D;52176;44.858;38.372;2023-04-20T04:28:12;14.83;88.28
64918;HTU21D;52176;44.858;38.372;2023-04-20T04:30:48;15.01;87.35
64918;HTU21D;52176;44.858;38.372;2023-04-20T04:33:13;15.07;87.60
64918;HTU21D;52176;44.858;38.372;2023-04-20T04:35:42;15.23;86.68
64918;HTU21D;52176;44.858;38.372;2023-04-20T04:38:10;15.33;86.32
64918;HTU21D;52176;44.858;38.372;2023-04-20T04:40:36;15.36;85.98
64918;HTU21D;52176;44.858;38.372;2023-04-20T04:43:06;15.37;85.71
64918;HTU21D;52176;44.858;38.372;2023-04-20T04:45:37;15.36;85.38
64918;HTU21D;52176;44.858;38.372;2023-04-20T04:48:08;15.37;86.99
64918;HTU21D;52176;44.858;38.372;2023-04-20T04:50:36;15.59;86.17
64918;HTU21D;52176;44.858;38.372;2023-04-20T04:53:02;15.67;85.45
64918;HTU21D;52176;44.858;38.372;2023-04-20T04:55:28;15.71;86.16
64918;HTU21D;52176;44.858;38.372;2023-04-20T04:57:54;15.96;85.32
64918;HTU21D;52176;44.858;38.372;2023-04-20T05:00:19;16.07;85.29
64918;HTU21D;52176;44.858;38.372;2023-04-20T05:02:46;16.36;84.47
64918;HTU21D;52176;44.858;38.372;2023-04-20T05:05:12;16.55;83.87
64918;HTU21D;52176;44.858;38.372;2023-04-20T05:07:39;16.74;83.56
64918;HTU21D;52176;44.858;38.372;2023-04-20T05:10:05;16.82;82.96
64918;HTU21D;52176;44.858;38.372;2023-04-20T05:12:31;16.93;82.87
64918;HTU21D;52176;44.858;38.372;2023-04-20T05:14:57;17.02;82.29
64918;HTU21D;52176;44.858;38.372;2023-04-20T05:17:23;17.10;81.89
64918;HTU21D;52176;44.858;38.372;2023-04-20T05:19:49;17.22;81.54
64918;HTU21D;52176;44.858;38.372;2023-04-20T05:22:15;17.31;81.15
64918;HTU21D;52176;44.858;38.372;2023-04-20T05:24:41;17.37;80.75
64918;HTU21D;52176;44.858;38.372;2023-04-20T05:27:07;17.31;78.56
64918;HTU21D;52176;44.858;38.372;2023-04-20T05:29:33;17.47;77.65
64918;HTU21D;52176;44.858;38.372;2023-04-20T05:31:59;17.64;77.57
64918;HTU21D;52176;44.858;38.372;2023-04-20T05:34:25;17.65;77.57
64918;HTU21D;52176;44.858;38.372;2023-04-20T05:36:51;17.65;77.67
64918;HTU21D;52176;44.858;38.372;2023-04-20T05:39:17;17.53;76.92
64918;HTU21D;52176;44.858;38.372;2023-04-20T05:41:43;17.70;76.92
64918;HTU21D;52176;44.858;38.372;2023-04-20T05:44:09;17.78;76.76
64918;HTU21D;52176;44.858;38.372;2023-04-20T05:46:35;17.88;76.68
64918;HTU21D;52176;44.858;38.372;2023-04-20T05:49:01;17.97;76.51
64918;HTU21D;52176;44.858;38.372;2023-04-20T05:51:26;18.09;76.38
64918;HTU21D;52176;44.858;38.372;2023-04-20T05:53:56;18.20;76.24
64918;HTU21D;52176;44.858;38.372;2023-04-20T05:56:21;18.26;76.09
64918;HTU21D;52176;44.858;38.372;2023-04-20T05:58:47;18.33;75.80
64918;HTU21D;52176;44.858;38.372;2023-04-20T06:01:13;18.40;75.68
64918;HTU21D;52176;44.858;38.372;2023-04-20T06:03:39;18.57;75.51
64918;HTU21D;52176;44.858;38.372;2023-04-20T06:06:05;18.78;75.15
64918;HTU21D;52176;44.858;38.372;2023-04-20T06:08:31;19.02;74.72
64918;HTU21D;52176;44.858;38.372;2023-04-20T06:10:57;19.29;74.25
64918;HTU21D;52176;44.858;38.372;2023-04-20T06:13:23;19.52;73.53
64918;HTU21D;52176;44.858;38.372;2023-04-20T06:15:49;19.66;72.99
64918;HTU21D;52176;44.858;38.372;2023-04-20T06:18:14;19.77;72.70
64918;HTU21D;52176;44.858;38.372;2023-04-20T06:20:43;19.92;72.27
64918;HTU21D;52176;44.858;38.372;2023-04-20T06:23:09;20.05;71.82
64918;HTU21D;52176;44.858;38.372;2023-04-20T06:25:35;19.91;68.84
64918;HTU21D;52176;44.858;38.372;2023-04-20T06:28:01;20.16;69.25
64918;HTU21D;52176;44.858;38.372;2023-04-20T06:30:27;20.24;69.37
64918;HTU21D;52176;44.858;38.372;2023-04-20T06:32:54;20.25;69.55
64918;HTU21D;52176;44.858;38.372;2023-04-20T06:35:20;20.24;69.46
64918;HTU21D;52176;44.858;38.372;2023-04-20T06:37:47;20.28;69.42
64918;HTU21D;52176;44.858;38.372;2023-04-20T06:40:12;20.37;69.35
64918;HTU21D;52176;44.858;38.372;2023-04-20T06:42:38;20.50;69.19
64918;HTU21D;52176;44.858;38.372;2023-04-20T06:45:04;20.58;68.97
64918;HTU21D;52176;44.858;38.372;2023-04-20T06:47:30;20.63;69.00
64918;HTU21D;52176;44.858;38.372;2023-04-20T06:49:58;20.64;68.97
64918;HTU21D;52176;44.858;38.372;2023-04-20T06:52:24;20.62;68.80
64918;HTU21D;52176;44.858;38.372;2023-04-20T06:54:49;20.55;68.62
64918;HTU21D;52176;44.858;38.372;2023-04-20T06:57:15;20.45;68.67
64918;HTU21D;52176;44.858;38.372;2023-04-20T06:59:41;20.34;68.74
64918;HTU21D;52176;44.858;38.372;2023-04-20T07:02:07;20.20;68.80
64918;HTU21D;52176;44.858;38.372;2023-04-20T07:04:32;20.04;68.89
64918;HTU21D;52176;44.858;38.372;2023-04-20T07:06:58;19.90;68.94
64918;HTU21D;52176;44.858;38.372;2023-04-20T07:09:24;19.70;69.19
64918;HTU21D;52176;44.858;38.372;2023-04-20T07:11:50;19.45;69.65
64918;HTU21D;52176;44.858;38.372;2023-04-20T07:14:15;19.28;70.03
64918;HTU21D;52176;44.858;38.372;2023-04-20T07:16:41;19.12;70.35
64918;HTU21D;52176;44.858;38.372;2023-04-20T07:19:07;19.00;70.50
64918;HTU21D;52176;44.858;38.372;2023-04-20T07:21:32;18.92;70.72
64918;HTU21D;52176;44.858;38.372;2023-04-20T07:24:00;18.84;70.80
64918;HTU21D;52176;44.858;38.372;2023-04-20T07:26:26;18.80;70.93
64918;HTU21D;52176;44.858;38.372;2023-04-20T07:28:52;18.80;71.03
64918;HTU21D;52176;44.858;38.372;2023-04-20T07:31:18;18.77;71.16
64918;HTU21D;52176;44.858;38.372;2023-04-20T07:33:43;18.74;71.16
64918;HTU21D;52176;44.858;38.372;2023-04-20T07:36:09;18.73;71.17
64918;HTU21D;52176;44.858;38.372;2023-04-20T07:38:35;18.71;71.23
64918;HTU21D;52176;44.858;38.372;2023-04-20T07:41:01;18.65;71.29
64918;HTU21D;52176;44.858;38.372;2023-04-20T07:43:27;18.61;71.27
64918;HTU21D;52176;44.858;38.372;2023-04-20T07:45:53;18.55;71.45
64918;HTU21D;52176;44.858;38.372;2023-04-20T07:48:19;18.50;71.48
64918;HTU21D;52176;44.858;38.372;2023-04-20T07:50:45;18.43;71.53
64918;HTU21D;52176;44.858;38.372;2023-04-20T07:53:11;18.33;71.72
64918;HTU21D;52176;44.858;38.372;2023-04-20T07:55:36;18.23;71.94
64918;HTU21D;52176;44.858;38.372;2023-04-20T07:58:02;18.11;72.05
64918;HTU21D;52176;44.858;38.372;2023-04-20T08:00:28;18.02;72.34
64918;HTU21D;52176;44.858;38.372;2023-04-20T08:02:54;17.93;72.54
64918;HTU21D;52176;44.858;38.372;2023-04-20T08:05:20;17.88;72.70
64918;HTU21D;52176;44.858;38.372;2023-04-20T08:07:46;17.74;73.86
64918;HTU21D;52176;44.858;38.372;2023-04-20T08:10:30;17.81;73.25
64918;HTU21D;52176;44.858;38.372;2023-04-20T08:12:56;17.77;73.21
64918;HTU21D;52176;44.858;38.372;2023-04-20T08:18:07;17.63;73.24
64918;HTU21D;52176;44.858;38.372;2023-04-20T08:20:33;17.54;73.32
64918;HTU21D;52176;44.858;38.372;2023-04-20T08:22:59;17.46;73.53
64918;HTU21D;52176;44.858;38.372;2023-04-20T08:25:43;17.38;73.61
64918;HTU21D;52176;44.858;38.372;2023-04-20T08:28:09;17.28;73.84
64918;HTU21D;52176;44.858;38.372;2023-04-20T08:30:34;17.17;74.08
64918;HTU21D;52176;44.858;38.372;2023-04-20T08:33:01;17.07;74.46
64918;HTU21D;52176;44.858;38.372;2023-04-20T08:40:55;16.73;75.47
64918;HTU21D;52176;44.858;38.372;2023-04-20T08:43:21;16.62;75.81
64918;HTU21D;52176;44.858;38.372;2023-04-20T08:45:47;16.58;76.09
64918;HTU21D;52176;44.858;38.372;2023-04-20T08:48:15;16.51;79.68
64918;HTU21D;52176;44.858;38.372;2023-04-20T08:50:41;16.61;80.36
64918;HTU21D;52176;44.858;38.372;2023-04-20T08:53:07;16.76;80.19
64918;HTU21D;52176;44.858;38.372;2023-04-20T08:55:34;16.88;78.87
64918;HTU21D;52176;44.858;38.372;2023-04-20T08:58:00;16.88;79.65
64918;HTU21D;52176;44.858;38.372;2023-04-20T09:04:01;17.19;78.19
64918;HTU21D;52176;44.858;38.372;2023-04-20T09:06:27;17.25;77.62
64918;HTU21D;52176;44.858;38.372;2023-04-20T09:08:53;17.20;77.40
64918;HTU21D;52176;44.858;38.372;2023-04-20T09:11:28;17.15;77.43
64918;HTU21D;52176;44.858;38.372;2023-04-20T09:14:00;17.04;77.47
64918;HTU21D;52176;44.858;38.372;2023-04-20T09:16:49;16.90;80.35
64918;HTU21D;52176;44.858;38.372;2023-04-20T09:19:24;17.02;80.57
64918;HTU21D;52176;44.858;38.372;2023-04-20T09:21:51;17.16;79.24
64918;HTU21D;52176;44.858;38.372;2023-04-20T09:24:21;17.11;78.72
64918;HTU21D;52176;44.858;38.372;2023-04-20T09:26:47;17.07;78.59
64918;HTU21D;52176;44.858;38.372;2023-04-20T09:29:20;17.03;80.86
64918;HTU21D;52176;44.858;38.372;2023-04-20T09:31:47;17.25;80.89
64918;HTU21D;52176;44.858;38.372;2023-04-20T09:34:13;17.48;79.62
64918;HTU21D;52176;44.858;38.372;2023-04-20T09:36:40;17.52;78.84
64918;HTU21D;52176;44.858;38.372;2023-04-20T09:41:51;17.58;78.36
64918;HTU21D;52176;44.858;38.372;2023-04-20T09:44:17;17.60;78.21
64918;HTU21D;52176;44.858;38.372;2023-04-20T09:46:43;17.65;78.18
64918;HTU21D;52176;44.858;38.372;2023-04-20T09:49:10;17.68;78.08
64918;HTU21D;52176;44.858;38.372;2023-04-20T09:51:36;17.73;78.01
64918;HTU21D;52176;44.858;38.372;2023-04-20T09:54:04;17.81;77.77
64918;HTU21D;52176;44.858;38.372;2023-04-20T09:56:30;17.85;77.56
64918;HTU21D;52176;44.858;38.372;2023-04-20T09:58:57;17.98;77.42
64918;HTU21D;52176;44.858;38.372;2023-04-20T10:01:41;18.08;77.26
64918;HTU21D;52176;44.858;38.372;2023-04-20T10:04:25;18.17;77.13
64918;HTU21D;52176;44.858;38.372;2023-04-20T10:06:52;18.12;78.50
64918;HTU21D;52176;44.858;38.372;2023-04-20T10:09:20;18.28;77.64
64918;HTU21D;52176;44.858;38.372;2023-04-20T10:11:46;18.36;77.21
64918;HTU21D;52176;44.858;38.372;2023-04-20T10:14:31;18.46;76.89
64918;HTU21D;52176;44.858;38.372;2023-04-20T10:17:01;18.58;76.58
64918;HTU21D;52176;44.858;38.372;2023-04-20T10:19:43;18.65;76.27
64918;HTU21D;52176;44.858;38.372;2023-04-20T10:22:10;18.69;76.72
64918;HTU21D;52176;44.858;38.372;2023-04-20T10:24:36;19.00;75.99
64918;HTU21D;52176;44.858;38.372;2023-04-20T10:27:23;19.27;75.31
64918;HTU21D;52176;44.858;38.372;2023-04-20T10:29:49;19.39;74.90
64918;HTU21D;52176;44.858;38.372;2023-04-20T10:35:18;19.73;73.84
64918;HTU21D;52176;44.858;38.372;2023-04-20T10:40:47;20.20;72.95
64918;HTU21D;52176;44.858;38.372;2023-04-20T10:43:19;20.43;72.33
64918;HTU21D;52176;44.858;38.372;2023-04-20T10:45:48;20.60;71.66
64918;HTU21D;52176;44.858;38.372;2023-04-20T10:48:14;20.65;71.19
64918;HTU21D;52176;44.858;38.372;2023-04-20T10:50:40;20.69;71.06
64918;HTU21D;52176;44.858;38.372;2023-04-20T10:53:16;20.73;70.87
64918;HTU21D;52176;44.858;38.372;2023-04-20T10:55:42;20.84;70.75
64918;HTU21D;52176;44.858;38.372;2023-04-20T10:58:08;20.99;70.28
64918;HTU21D;52176;44.858;38.372;2023-04-20T11:04:30;21.39;69.31
64918;HTU21D;52176;44.858;38.372;2023-04-20T11:07:06;21.68;68.86
64918;HTU21D;52176;44.858;38.372;2023-04-20T11:12:17;22.56;66.85
64918;HTU21D;52176;44.858;38.372;2023-04-20T11:14:52;22.82;66.16
64918;HTU21D;52176;44.858;38.372;2023-04-20T11:17:19;22.97;65.59
64918;HTU21D;52176;44.858;38.372;2023-04-20T11:19:45;23.11;65.14
64918;HTU21D;52176;44.858;38.372;2023-04-20T11:22:20;23.14;64.52
64918;HTU21D;52176;44.858;38.372;2023-04-20T11:24:49;23.09;64.50
64918;HTU21D;52176;44.858;38.372;2023-04-20T11:27:37;22.94;64.73
64918;HTU21D;52176;44.858;38.372;2023-04-20T11:30:04;22.78;65.04
64918;HTU21D;52176;44.858;38.372;2023-04-20T11:32:31;22.67;65.26
64918;HTU21D;52176;44.858;38.372;2023-04-20T11:35:01;22.55;65.31
64918;HTU21D;52176;44.858;38.372;2023-04-20T11:37:28;22.50;65.20
64918;HTU21D;52176;44.858;38.372;2023-04-20T11:40:04;22.46;65.14
64918;HTU21D;52176;44.858;38.372;2023-04-20T11:42:35;22.38;65.04
64918;HTU21D;52176;44.858;38.372;2023-04-20T11:45:01;22.29;64.89
64918;HTU21D;52176;44.858;38.372;2023-04-20T11:47:27;22.18;65.05
64918;HTU21D;52176;44.858;38.372;2023-04-20T11:49:53;22.04;65.19
64918;HTU21D;52176;44.858;38.372;2023-04-20T11:52:19;21.89;65.19
64918;HTU21D;52176;44.858;38.372;2023-04-20T11:54:45;21.72;65.58
64918;HTU21D;52176;44.858;38.372;2023-04-20T11:57:11;21.61;65.82
64918;HTU21D;52176;44.858;38.372;2023-04-20T11:59:37;21.57;65.73
64918;HTU21D;52176;44.858;38.372;2023-04-20T12:02:03;21.49;65.83
64918;HTU21D;52176;44.858;38.372;2023-04-20T12:04:30;21.44;65.97
64918;HTU21D;52176;44.858;38.372;2023-04-20T12:06:57;21.32;66.17
64918;HTU21D;52176;44.858;38.372;2023-04-20T12:09:27;21.22;66.26
64918;HTU21D;52176;44.858;38.372;2023-04-20T12:11:53;21.14;66.36
64918;HTU21D;52176;44.858;38.372;2023-04-20T12:14:19;21.06;66.27
64918;HTU21D;52176;44.858;38.372;2023-04-20T12:16:44;20.92;66.19
64918;HTU21D;52176;44.858;38.372;2023-04-20T12:19:10;20.75;66.18
64918;HTU21D;52176;44.858;38.372;2023-04-20T12:21:36;20.58;66.36
64918;HTU21D;52176;44.858;38.372;2023-04-20T12:24:02;20.46;66.59
64918;HTU21D;52176;44.858;38.372;2023-04-20T12:26:28;20.41;66.74
64918;HTU21D;52176;44.858;38.372;2023-04-20T12:28:55;20.37;66.88
64918;HTU21D;52176;44.858;38.372;2023-04-20T12:31:21;20.32;67.02
64918;HTU21D;52176;44.858;38.372;2023-04-20T12:33:48;20.31;67.12
64918;HTU21D;52176;44.858;38.372;2023-04-20T12:36:14;20.30;67.20
64918;HTU21D;52176;44.858;38.372;2023-04-20T12:38:40;20.30;67.14
64918;HTU21D;52176;44.858;38.372;2023-04-20T12:41:06;20.31;67.14
64918;HTU21D;52176;44.858;38.372;2023-04-20T12:43:32;20.34;67.12
64918;HTU21D;52176;44.858;38.372;2023-04-20T12:45:58;20.35;67.09
64918;HTU21D;52176;44.858;38.372;2023-04-20T12:48:23;20.39;66.81
64918;HTU21D;52176;44.858;38.372;2023-04-20T12:50:50;20.41;66.66
64918;HTU21D;52176;44.858;38.372;2023-04-20T12:53:16;20.40;66.42
64918;HTU21D;52176;44.858;38.372;2023-04-20T12:55:42;20.35;66.15
64918;HTU21D;52176;44.858;38.372;2023-04-20T12:58:08;20.25;66.21
64918;HTU21D;52176;44.858;38.372;2023-04-20T13:00:33;20.03;66.12
64918;HTU21D;52176;44.858;38.372;2023-04-20T13:02:59;20.07;66.04
64918;HTU21D;52176;44.858;38.372;2023-04-20T13:05:25;20.03;66.12
64918;HTU21D;52176;44.858;38.372;2023-04-20T13:07:51;19.98;66.27
64918;HTU21D;52176;44.858;38.372;2023-04-20T13:10:17;19.95;66.63
64918;HTU21D;52176;44.858;38.372;2023-04-20T13:12:42;19.98;66.87
64918;HTU21D;52176;44.858;38.372;2023-04-20T13:15:08;19.99;66.85
64918;HTU21D;52176;44.858;38.372;2023-04-20T13:17:34;20.00;66.98
64918;HTU21D;52176;44.858;38.372;2023-04-20T13:20:00;20.01;66.99
64918;HTU21D;52176;44.858;38.372;2023-04-20T13:22:26;19.98;66.95
64918;HTU21D;52176;44.858;38.372;2023-04-20T13:24:52;19.87;66.90
64918;HTU21D;52176;44.858;38.372;2023-04-20T13:27:17;20.00;66.55
64918;HTU21D;52176;44.858;38.372;2023-04-20T13:29:43;19.98;66.33
64918;HTU21D;52176;44.858;38.372;2023-04-20T13:32:09;19.90;66.34
64918;HTU21D;52176;44.858;38.372;2023-04-20T13:34:35;19.79;66.49
64918;HTU21D;52176;44.858;38.372;2023-04-20T13:37:01;19.67;66.54
64918;HTU21D;52176;44.858;38.372;2023-04-20T13:39:28;19.54;66.65
64918;HTU21D;52176;44.858;38.372;2023-04-20T13:41:54;19.40;66.86
64918;HTU21D;52176;44.858;38.372;2023-04-20T13:44:20;19.18;68.16
64918;HTU21D;52176;44.858;38.372;2023-04-20T13:46:48;19.25;67.75
64918;HTU21D;52176;44.858;38.372;2023-04-20T13:49:14;19.20;67.65
64918;HTU21D;52176;44.858;38.372;2023-04-20T13:55:17;18.86;67.92
64918;HTU21D;52176;44.858;38.372;2023-04-20T13:57:45;18.68;68.31
64918;HTU21D;52176;44.858;38.372;2023-04-20T14:00:11;18.50;68.76
64918;HTU21D;52176;44.858;38.372;2023-04-20T14:02:37;18.29;70.90
64918;HTU21D;52176;44.858;38.372;2023-04-20T14:05:03;18.37;70.97
64918;HTU21D;52176;44.858;38.372;2023-04-20T14:07:30;18.50;70.08
64918;HTU21D;52176;44.858;38.372;2023-04-20T14:09:57;18.64;69.87
64918;HTU21D;52176;44.858;38.372;2023-04-20T14:12:24;18.71;69.97
64918;HTU21D;52176;44.858;38.372;2023-04-20T14:14:52;18.76;70.00
64918;HTU21D;52176;44.858;38.372;2023-04-20T14:17:17;18.76;69.90
64918;HTU21D;52176;44.858;38.372;2023-04-20T14:19:43;18.72;69.34
64918;HTU21D;52176;44.858;38.372;2023-04-20T14:22:09;18.56;70.08
64918;HTU21D;52176;44.858;38.372;2023-04-20T14:24:35;18.57;70.29
64918;HTU21D;52176;44.858;38.372;2023-04-20T14:27:01;18.55;70.30
64918;HTU21D;52176;44.858;38.372;2023-04-20T14:29:27;18.48;69.58
64918;HTU21D;52176;44.858;38.372;2023-04-20T14:31:52;18.42;69.27
64918;HTU21D;52176;44.858;38.372;2023-04-20T14:34:18;18.28;69.26
64918;HTU21D;52176;44.858;38.372;2023-04-20T14:36:44;18.09;69.39
64918;HTU21D;52176;44.858;38.372;2023-04-20T14:39:10;17.91;69.64
64918;HTU21D;52176;44.858;38.372;2023-04-20T14:41:36;17.72;69.90
64918;HTU21D;52176;44.858;38.372;2023-04-20T14:44:01;17.58;70.19
64918;HTU21D;52176;44.858;38.372;2023-04-20T14:46:28;17.43;70.38
64918;HTU21D;52176;44.858;38.372;2023-04-20T14:48:54;17.30;70.51
64918;HTU21D;52176;44.858;38.372;2023-04-20T14:51:20;17.19;70.71
64918;HTU21D;52176;44.858;38.372;2023-04-20T14:53:45;17.09;71.01
64918;HTU21D;52176;44.858;38.372;2023-04-20T14:56:11;17.02;71.22
64918;HTU21D;52176;44.858;38.372;2023-04-20T14:58:37;16.94;71.44
64918;HTU21D;52176;44.858;38.372;2023-04-20T15:01:04;16.91;71.52
64918;HTU21D;52176;44.858;38.372;2023-04-20T15:03:30;16.80;71.37
64918;HTU21D;52176;44.858;38.372;2023-04-20T15:05:57;16.72;71.29
64918;HTU21D;52176;44.858;38.372;2023-04-20T15:08:23;16.64;71.44
64918;HTU21D;52176;44.858;38.372;2023-04-20T15:10:48;16.59;71.64
64918;HTU21D;52176;44.858;38.372;2023-04-20T15:13:16;16.51;71.81
64918;HTU21D;52176;44.858;38.372;2023-04-20T15:15:42;16.45;71.89
64918;HTU21D;52176;44.858;38.372;2023-04-20T15:18:08;16.36;72.05
64918;HTU21D;52176;44.858;38.372;2023-04-20T15:20:34;16.29;72.23
64918;HTU21D;52176;44.858;38.372;2023-04-20T15:23:00;16.15;74.94
64918;HTU21D;52176;44.858;38.372;2023-04-20T15:25:26;16.19;73.86
64918;HTU21D;52176;44.858;38.372;2023-04-20T15:27:51;16.14;73.44
64918;HTU21D;52176;44.858;38.372;2023-04-20T15:30:17;16.04;73.35
64918;HTU21D;52176;44.858;38.372;2023-04-20T15:32:45;15.91;73.41